WetterOnline ( https://www.wetteronline.de )

Wetter aktuell Gerold

Aktuelles Wetter: Garmisch-Partenkirchen (719m)

6-stündlich | Neueste Meldungen
Ortszeit Temperatur Wetter
Di, 10.12. 1:00 1.6° C leichter Regen
Mo, 09.12. 19:00 1.6° C bedeckt
Mo, 09.12. 13:00 8.1° C fast wolkenlos
Mo, 09.12. 7:00 1.9° C Regen
Mo, 09.12. 1:00 1.7° C bedeckt
So, 08.12. 19:00 -1.0° C wolkig
So, 08.12. 13:00 5.6° C leicht bewölkt
So, 08.12. 7:00 -3.0° C wolkig
Ortszeit Temperatur Wetter
Di, 10.12. 5:00 0.5° C starker Schneefall
Di, 10.12. 4:50 0.5° C starker Schneefall
Di, 10.12. 4:40 0.4° C Schneefall
Di, 10.12. 4:30 0.4° C Schneefall
Di, 10.12. 4:20 0.4° C Schneefall
Di, 10.12. 4:10 0.5° C Schneefall
Di, 10.12. 4:00 0.6° C Schneefall
Di, 10.12. 3:30 0.6° C leichter Schneeregen
Di, 10.12. 3:00 0.5° C leichter Schneeregen
Di, 10.12. 2:30 0.5° C Schneeregen
Di, 10.12. 2:00 0.6° C Schneeregen
Ortszeit Relative Feuchte Sichtweite
Di, 10.12. 1:00 97% 2.1 km
Mo, 09.12. 19:00 96% 45 km
Mo, 09.12. 13:00 65% 65 km
Mo, 09.12. 7:00 98% 55 km
Mo, 09.12. 1:00 84% 65 km
So, 08.12. 19:00 92% 28 km
So, 08.12. 13:00 63% 55 km
So, 08.12. 7:00 96% 60 km
Ortszeit Relative Feuchte Sichtweite
Di, 10.12. 5:00 98% 1.2 km
Di, 10.12. 4:50 98% -
Di, 10.12. 4:40 99% -
Di, 10.12. 4:30 98% 3.5 km
Di, 10.12. 4:20 98% -
Di, 10.12. 4:10 99% -
Di, 10.12. 4:00 99% 4.4 km
Di, 10.12. 3:30 97% 10 km
Di, 10.12. 3:00 99% 6 km
Di, 10.12. 2:30 97% 7 km
Di, 10.12. 2:00 96% 9 km
Ortszeit Niederschlagsmenge Niederschlagsart
Di, 10.12. 1:00 5 l/m2 in 6 Std. Regen
Mo, 09.12. 19:00 0.4 l/m2 in 12 Std. Regen
Mo, 09.12. 13:00 0.1 l/m2 in 6 Std. Regen
Mo, 09.12. 7:00 0.8 l/m2 in 12 Std. Regen
Mo, 09.12. 1:00 0.0 l/m2 in 6 Std. -
So, 08.12. 19:00 0.0 l/m2 in 12 Std. -
So, 08.12. 13:00 0.0 l/m2 in 6 Std. -
So, 08.12. 7:00 0.0 l/m2 in 12 Std. -
Ortszeit Niederschlagsmenge Niederschlagsart
Di, 10.12. 5:00 2.5 l/m2 in 1 Std. Schnee
Di, 10.12. 4:50 keine Meldung -
Di, 10.12. 4:40 keine Meldung -
Di, 10.12. 4:30 1.3 l/m2 in 1 Std. -
Di, 10.12. 4:20 keine Meldung -
Di, 10.12. 4:10 keine Meldung -
Di, 10.12. 4:00 0.8 l/m2 in 1 Std. Schnee, Regen
Di, 10.12. 3:30 0.2 l/m2 in 1 Std. -
Di, 10.12. 3:00 1.3 l/m2 in 1 Std. Schnee, Regen
Di, 10.12. 2:30 0.6 l/m2 in 1 Std. -
Di, 10.12. 2:00 2.1 l/m2 in 1 Std. Schnee, Regen
Ortszeit Stärke Spitze Richtung
km/h Bft. km/h Grad Sektor
Di, 10.12. 1:00 2 1 15 210° SW
Mo, 09.12. 19:00 4 1 36 260° W
Mo, 09.12. 13:00 6 1 13 50° NO
Mo, 09.12. 7:00 4 1 18 360° N
Mo, 09.12. 1:00 4 1 11 180° S
So, 08.12. 19:00 7 2 11 200° S
So, 08.12. 13:00 2 1 11 220° SW
So, 08.12. 7:00 4 1 11 220° SW
Ortszeit Stärke Spitze Richtung
km/h Bft. km/h Grad Sektor
Di, 10.12. 5:00 4 1 7 80° O
Di, 10.12. 4:50 4 1 - 80° O
Di, 10.12. 4:40 4 1 - 70° O
Di, 10.12. 4:30 2 1 6 240° SW
Di, 10.12. 4:20 2 1 - 240° SW
Di, 10.12. 4:10 2 1 - 230° SW
Di, 10.12. 4:00 4 1 7 230° SW
Di, 10.12. 3:30 2 1 6 220° SW
Di, 10.12. 3:00 4 1 7 230° SW
Di, 10.12. 2:30 4 1 7 260° W
Di, 10.12. 2:00 0 0 4 - -
Ortszeit Untergrenze Bedeckung Gattung
total tief tief mittel hoch
Di, 10.12. 1:00 210 m 8/8 8/8 - - -
Mo, 09.12. 19:00 720 m 8/8 8/8 - - -
Mo, 09.12. 13:00 2100 m 1/8 1/8 - - -
Mo, 09.12. 7:00 900 m 8/8 8/8 - - -
Mo, 09.12. 1:00 3000 m 8/8 8/8 - - -
So, 08.12. 19:00 7800 m 8/8 0/8 - - -
So, 08.12. 13:00 9000 m 7/8 0/8 - - -
So, 08.12. 7:00 9000 m 7/8 0/8 - - -
Ortszeit Bedeckungsgrad in Achtel und Wolkenuntergrenze
Di, 10.12. 5:00 6(210m) 8(330m)
Di, 10.12. 4:50 6(210m) 8(330m)
Di, 10.12. 4:40 4(180m) 8(330m)
Di, 10.12. 4:30 1(210m) 7(330m)
Di, 10.12. 4:20 1(210m) 7(330m)
Di, 10.12. 4:10 3(210m) 8(330m)
Di, 10.12. 4:00 4(210m) 8(330m)
Di, 10.12. 3:30 3(210m) 7(390m) 8(840m)
Di, 10.12. 3:00 2(210m) 7(540m) 7(810m)
Di, 10.12. 2:30 2(120m) 7(420m) 8(720m)
Di, 10.12. 2:00 3(210m) 7(540m) 8(690m)
Ortszeit Luftdruck NN (hPa) Tendenz (hPa in 3 Std.)
Di, 10.12. 1:00 1018 + 3,1
Mo, 09.12. 19:00 1010 + 1,8
Mo, 09.12. 13:00 1005 - 2,0
Mo, 09.12. 7:00 1010 + 0,3
Mo, 09.12. 1:00 1010 - 0,4
So, 08.12. 19:00 1014 - 0,9
So, 08.12. 13:00 1015 - 1,7
So, 08.12. 7:00 1021 - 1,4
Ortszeit Luftdruck NN (hPa) Tendenz (hPa in 3 Std.)
Di, 10.12. 5:00 1023 + 3,8
Di, 10.12. 4:50 1023 keine Meldung
Di, 10.12. 4:40 1023 keine Meldung
Di, 10.12. 4:30 1022 + 3,4
Di, 10.12. 4:20 1022 keine Meldung
Di, 10.12. 4:10 1022 keine Meldung
Di, 10.12. 4:00 1022 + 3,3
Di, 10.12. 3:30 1021 + 3,1
Di, 10.12. 3:00 1021 + 3,2
Di, 10.12. 2:30 1020 + 3,2
Di, 10.12. 2:00 1019 + 3,2
Ortszeit Schneehöhe (cm)
Di, 10.12. 1:00 0
Mo, 09.12. 19:00 0
Mo, 09.12. 13:00 0
Mo, 09.12. 7:00 0
Mo, 09.12. 1:00 0
So, 08.12. 19:00 0
So, 08.12. 13:00 0
So, 08.12. 7:00 0
Ortszeit Schneehöhe (cm)
Di, 10.12. 5:00 0
Di, 10.12. 4:50 0
Di, 10.12. 4:40 0
Di, 10.12. 4:30 0
Di, 10.12. 4:20 0
Di, 10.12. 4:10 0
Di, 10.12. 4:00 0
Di, 10.12. 3:30 0
Di, 10.12. 3:00 0
Di, 10.12. 2:30 0
Di, 10.12. 2:00 0
Link zu dieser Seite / Seite empfehlen

Das Wetter in ...